• Join FlightAware (Why Join?)
  • Login
  • US Flag 
10:05AM EST


 

Airport Tracker/Info


-or-


 

Live Flight TrackerFlight Track Log ✈ PDT4166 ✈ 15-Jun-2013 ✈ KPHL - KSYR

Flight Track Log - Related Links

Times and Time Zones

All times are in EDT time to prevent confusion due to time zone crossing. See the PDT4166 flight status page for this flight to view local times or setup timezone preferences in your user account.

Time Position Orientation Groundspeed Altitude Reporting Facility
EDT Latitude Longitude Course Direction KTS MPH feet Rate Location/Type
05:30PM 39.9000 -75.2333 330° Northwest 112 129 700  Level Philadelphia TRACON
05:31PM 39.9000 -75.2667 270° West 133 153 1,700 1,320 Climbing Philadelphia TRACON
05:32PM 40.0360 -75.3860 323° Northwest  Level FlightAware Approximate
05:32PM 39.9167 -75.3167 294° West 139 160 3,100  Level Philadelphia TRACON
05:32PM 39.9333 -75.3667 294° West 144 166 4,300 1,140 Climbing Philadelphia TRACON
05:33PM 40.0961 -75.4314 339° North  Level FlightAware Approximate
05:34PM 40.1449 -75.4949 323° Northwest  Level FlightAware Approximate
05:34PM 39.9500 -75.4167 294° West 152 175 5,500  Level Philadelphia TRACON
05:35PM 40.2052 -75.5414 330° Northwest  Level FlightAware Approximate
05:35PM 40.0000 -75.4333 346° North 158 182 6,900  Level Philadelphia TRACON
05:37PM 40.0633 -75.4819 330° Northwest 164 189 9,100 960 Climbing New York Center
05:38PM 40.1039 -75.5039 338° Northwest 164 189 9,800 540 Climbing New York Center
05:39PM 40.1533 -75.5233 343° North 171 197 10,200 540 Climbing New York Center
05:40PM 40.2022 -75.5486 338° Northwest 182 209 10,900 720 Climbing New York Center
05:41PM 40.2406 -75.5783 329° Northwest 182 209 11,700 540 Climbing New York Center
05:42PM 40.2736 -75.6406 305° West 179 206 12,000 120 Climbing New York Center
05:43PM 40.3219 -75.6767 330° Northwest 192 221 12,000  Level New York Center
05:44PM 40.3842 -75.6836 355° North 207 238 12,000  Level New York Center
05:45PM 40.4381 -75.6958 350° North 220 253 12,000  Level New York Center
05:46PM 40.5000 -75.7056 353° North 220 253 12,000  Level New York Center
05:47PM 40.5686 -75.7133 355° North 220 253 12,000  Level New York Center
05:48PM 40.6286 -75.7258 351° North 220 253 12,000  Level New York Center
05:49PM 40.6906 -75.7358 353° North 220 253 12,000  Level New York Center
05:50PM 40.7486 -75.7428 355° North 220 253 12,000  Level New York Center
05:51PM 40.8086 -75.7525 353° North 220 253 12,000 -60 Level New York Center
05:52PM 40.8769 -75.7631 353° North 220 253 11,900 -60 Descending New York Center
05:53PM 40.9369 -75.7703 355° North 220 253 11,900  Level New York Center
05:54PM 41.0011 -75.7831 351° North 220 253 12,000  Climbing New York Center
05:55PM 41.0550 -75.7900 354° North 220 253 12,000  Level New York Center
05:56PM 41.1192 -75.7975 355° North 214 246 12,000  Level New York Center
05:57PM 41.1856 -75.8078 353° North 220 253 12,000  Level New York Center
05:58PM 41.2456 -75.8178 353° North 215 247 12,000  Level New York Center
05:59PM 41.2992 -75.8275 352° North 215 247 12,000  Level New York Center
06:00PM 41.3592 -75.8403 351° North 215 247 12,000  Level New York Center
06:01PM 41.4192 -75.8475 355° North 215 247 12,100  Climbing New York Center
06:02PM 41.4814 -75.8522 357° North 215 247 12,100 -60 Level New York Center
06:03PM 41.5475 -75.8656 351° North 215 247 12,000 -60 Descending New York Center
06:04PM 41.6072 -75.8783 351° North 215 247 12,000  Level New York Center
06:05PM 41.6603 -75.9075 338° Northwest 215 247 12,000  Level New York Center
06:06PM 41.7197 -75.9314 343° North 220 253 12,000  Level New York Center